Time;durP1;ratioP1;P1;durP2;ratioP2;P2;SDS_P1;SDS_P2;PMS_P1;PMS_P2;Temp;Humidity;BMP_temperature;BMP_pressure;BME280_temperature;BME280_humidity;BME280_pressure;Samples;Min_cycle;Max_cycle;Signal;HPM_P1;HPM_P2
2023/06/05 00:02:06;;;;;;;7.65;4.57;;;;;;;16.28;61.46;102071.41;5072254;28;20455;-61
2023/06/05 00:04:31;;;;;;;7.88;4.60;;;;;;;16.25;61.33;102068.09;5070823;28;20307;-61
2023/06/05 00:06:57;;;;;;;9.73;5.15;;;;;;;16.20;61.52;102073.75;5072234;28;20052;-61
2023/06/05 00:09:22;;;;;;;9.88;4.90;;;;;;;16.15;61.44;102066.97;5071582;28;20103;-61
2023/06/05 00:11:50;;;;;;;6.07;4.80;;;;;;;16.19;61.43;102077.41;5070813;28;20020;-61
2023/06/05 00:14:16;;;;;;;7.35;4.68;;;;;;;16.03;61.84;102077.59;5068576;28;20033;-61
2023/06/05 00:16:42;;;;;;;7.38;4.90;;;;;;;15.92;62.26;102072.06;5072094;28;20425;-62
2023/06/05 00:19:07;;;;;;;8.57;4.53;;;;;;;16.00;62.05;102077.78;5072043;28;20128;-61
2023/06/05 00:21:33;;;;;;;7.43;5.43;;;;;;;15.97;62.02;102080.69;5070389;28;20025;-61
2023/06/05 00:23:58;;;;;;;8.82;5.38;;;;;;;15.96;62.05;102075.41;5040736;28;20054;-61
2023/06/05 00:26:26;;;;;;;10.68;4.85;;;;;;;16.01;61.79;102074.13;4970363;28;20105;-61
2023/06/05 00:28:52;;;;;;;9.85;5.40;;;;;;;15.87;62.20;102072.34;4970041;28;20397;-62
2023/06/05 00:31:18;;;;;;;7.70;4.90;;;;;;;15.69;62.89;102064.66;4980554;28;20027;-62
2023/06/05 00:33:44;;;;;;;7.90;4.93;;;;;;;15.83;62.61;102068.16;4974242;28;20538;-62
2023/06/05 00:36:11;;;;;;;7.78;4.93;;;;;;;15.86;62.32;102070.66;4968565;28;20358;-61
2023/06/05 00:38:36;;;;;;;10.20;4.85;;;;;;;15.80;62.70;102072.88;4987991;28;20034;-62
2023/06/05 00:41:02;;;;;;;10.23;4.95;;;;;;;15.79;62.66;102072.00;4972318;28;20059;-61
2023/06/05 00:43:27;;;;;;;6.38;5.10;;;;;;;15.64;63.02;102071.13;4968956;28;20038;-61
2023/06/05 00:45:59;;;;;;;7.10;5.10;;;;;;;15.72;63.02;102065.31;4969717;28;20023;-61
2023/06/05 00:48:25;;;;;;;10.10;4.43;;;;;;;15.85;62.23;102063.56;4987961;28;20068;-61
2023/06/05 00:50:51;;;;;;;10.00;4.93;;;;;;;15.75;62.83;102067.78;4971877;28;20115;-61
2023/06/05 00:53:16;;;;;;;6.18;5.13;;;;;;;15.58;63.08;102074.22;4988178;28;20370;-61
2023/06/05 00:55:42;;;;;;;6.72;4.88;;;;;;;15.62;62.99;102072.22;4989534;28;20046;-61
2023/06/05 00:58:08;;;;;;;7.60;5.05;;;;;;;15.60;63.16;102066.94;4989599;28;20381;-61
2023/06/05 01:00:36;;;;;;;6.15;4.95;;;;;;;15.71;62.77;102066.28;4988860;28;20065;-61
2023/06/05 01:03:02;;;;;;;9.40;4.75;;;;;;;15.64;63.05;102070.28;4992562;28;20026;-61
2023/06/05 01:05:28;;;;;;;8.50;5.70;;;;;;;15.50;63.29;102067.63;5053961;28;20494;-62
2023/06/05 01:07:54;;;;;;;9.80;5.30;;;;;;;15.44;63.93;102071.56;5074031;28;20115;-63
2023/06/05 01:10:19;;;;;;;6.88;5.30;;;;;;;15.31;64.01;102074.16;5074235;28;20410;-61
2023/06/05 01:12:51;;;;;;;7.78;5.40;;;;;;;15.18;64.60;102070.56;5075318;28;20020;-61
2023/06/05 01:15:18;;;;;;;6.35;4.78;;;;;;;15.09;65.05;102057.72;5073570;28;20032;-62
2023/06/05 01:17:47;;;;;;;7.55;5.07;;;;;;;14.89;65.30;102053.63;5075224;28;20022;-62
2023/06/05 01:20:13;;;;;;;7.65;4.97;;;;;;;14.93;65.62;102056.00;5073478;28;20033;-62
2023/06/05 01:22:40;;;;;;;8.85;5.82;;;;;;;14.94;65.59;102055.06;5071069;28;20028;-61
2023/06/05 01:25:07;;;;;;;7.20;5.60;;;;;;;14.99;65.67;102055.59;4998161;28;20152;-61
2023/06/05 01:27:51;;;;;;;11.27;5.80;;;;;;;14.67;66.74;102064.78;4971778;28;20031;-62
2023/06/05 01:30:28;;;;;;;8.35;6.18;;;;;;;14.78;66.09;102067.66;4984518;28;20101;-62
2023/06/05 01:33:02;;;;;;;11.57;6.22;;;;;;;14.81;66.27;102058.56;4986172;28;20038;-62
2023/06/05 01:35:33;;;;;;;10.40;5.40;;;;;;;14.80;66.18;102071.13;4986588;28;20474;-62
2023/06/05 01:38:02;;;;;;;8.55;5.35;;;;;;;14.82;66.17;102060.28;4972613;28;20443;-62
2023/06/05 01:40:30;;;;;;;8.15;5.88;;;;;;;14.88;66.20;102066.16;4981315;28;20115;-62
2023/06/05 01:42:56;;;;;;;12.40;5.90;;;;;;;14.79;66.22;102052.44;4974468;28;20027;-62
2023/06/05 01:45:22;;;;;;;5.90;5.32;;;;;;;14.58;66.85;102050.13;4970743;28;20035;-62
2023/06/05 01:47:48;;;;;;;6.28;5.30;;;;;;;14.76;66.65;102048.13;4972644;28;20018;-62
2023/06/05 01:50:14;;;;;;;11.70;6.00;;;;;;;14.62;66.96;102050.78;4974832;28;20453;-61
2023/06/05 01:52:41;;;;;;;6.95;5.65;;;;;;;14.71;66.75;102047.56;4987511;28;20062;-61
2023/06/05 01:55:14;;;;;;;10.95;6.72;;;;;;;14.76;66.83;102049.03;4989576;28;20062;-61
2023/06/05 01:57:43;;;;;;;8.75;5.70;;;;;;;14.50;67.36;102055.94;4971963;28;20062;-61
2023/06/05 02:00:12;;;;;;;9.77;5.50;;;;;;;14.42;67.51;102039.47;4990257;28;20428;-61
2023/06/05 02:02:45;;;;;;;6.75;5.82;;;;;;;14.59;67.34;102041.16;4976555;28;20034;-61
2023/06/05 02:05:12;;;;;;;13.85;6.85;;;;;;;14.62;67.32;102040.06;4972234;28;20378;-61
2023/06/05 02:07:54;;;;;;;7.47;6.15;;;;;;;14.39;68.01;102039.63;4971453;28;20531;-61
2023/06/05 02:10:20;;;;;;;8.60;6.10;;;;;;;14.29;68.07;102030.44;4972237;28;20055;-61
2023/06/05 02:12:46;;;;;;;8.52;6.03;;;;;;;14.40;68.10;102043.19;5020867;28;20028;-62
2023/06/05 02:15:13;;;;;;;8.25;5.97;;;;;;;14.14;69.02;102040.22;5072776;28;20020;-61
2023/06/05 02:17:44;;;;;;;10.10;6.53;;;;;;;14.02;69.40;102030.25;5074587;28;20368;-61
2023/06/05 02:20:12;;;;;;;8.57;6.97;;;;;;;13.91;69.71;102030.00;5028449;28;20035;-61
2023/06/05 02:22:37;;;;;;;10.15;6.70;;;;;;;14.14;69.23;102040.22;4970871;28;20074;-61
2023/06/05 02:25:05;;;;;;;8.05;6.55;;;;;;;14.23;69.08;102033.47;4970868;28;20054;-61
2023/06/05 02:27:33;;;;;;;8.63;6.80;;;;;;;14.09;69.54;102034.31;4971015;28;20496;-61
2023/06/05 02:29:58;;;;;;;12.85;6.95;;;;;;;14.09;69.46;102031.63;5027887;28;20071;-61
2023/06/05 02:32:28;;;;;;;8.90;7.03;;;;;;;13.99;69.45;102027.75;5072606;28;20443;-61
2023/06/05 02:34:56;;;;;;;8.75;7.18;;;;;;;13.96;70.17;102033.28;5073514;28;20086;-61
2023/06/05 02:37:22;;;;;;;8.80;7.00;;;;;;;13.95;70.10;102029.75;4974969;28;20022;-61
2023/06/05 02:39:48;;;;;;;10.63;7.07;;;;;;;13.88;70.36;102039.06;4987946;28;20070;-62
2023/06/05 02:42:14;;;;;;;8.70;6.85;;;;;;;14.04;69.88;102023.00;4972351;28;20073;-62
2023/06/05 02:44:39;;;;;;;8.27;7.10;;;;;;;13.72;70.63;102023.06;4970305;28;20117;-61
2023/06/05 02:47:07;;;;;;;10.63;7.32;;;;;;;13.81;70.64;102022.53;4968391;28;20084;-61
2023/06/05 02:49:32;;;;;;;7.88;6.97;;;;;;;13.89;70.42;102018.56;4986774;28;20550;-61
2023/06/05 02:51:58;;;;;;;11.15;7.63;;;;;;;13.73;70.83;102024.78;4989777;28;20042;-61
2023/06/05 02:54:23;;;;;;;8.40;7.10;;;;;;;13.74;70.79;102015.81;4986752;28;20080;-61
2023/06/05 02:56:51;;;;;;;9.45;7.28;;;;;;;13.86;70.91;102025.81;4989961;28;20026;-61
2023/06/05 02:59:16;;;;;;;8.13;7.32;;;;;;;13.60;71.07;102021.09;4987725;28;20107;-62
2023/06/05 03:01:43;;;;;;;9.43;7.75;;;;;;;13.60;71.23;102015.75;4989636;28;20470;-61
2023/06/05 03:04:09;;;;;;;11.85;7.50;;;;;;;13.77;70.86;102014.78;4990101;28;20034;-61
2023/06/05 03:06:35;;;;;;;9.52;6.90;;;;;;;13.44;71.72;102001.50;4988955;28;20037;-61
2023/06/05 03:09:01;;;;;;;11.05;7.50;;;;;;;13.64;71.63;102020.81;4988797;28;20030;-61
2023/06/05 03:11:26;;;;;;;11.60;7.38;;;;;;;13.64;71.33;102015.47;4986495;28;20042;-61
2023/06/05 03:13:52;;;;;;;8.57;7.65;;;;;;;13.61;71.47;102023.66;4981222;28;20022;-62
2023/06/05 03:16:18;;;;;;;9.77;7.05;;;;;;;13.57;71.73;102023.94;4987176;28;20034;-61
2023/06/05 03:18:45;;;;;;;9.55;7.68;;;;;;;13.76;71.12;102021.06;4989459;28;20087;-61
2023/06/05 03:21:11;;;;;;;11.75;8.48;;;;;;;13.68;71.29;102010.81;4984647;28;20037;-61
2023/06/05 03:23:36;;;;;;;8.27;7.47;;;;;;;13.77;70.87;102012.13;4986276;28;20018;-61
2023/06/05 03:26:02;;;;;;;9.00;7.70;;;;;;;13.54;71.12;101984.03;4983465;28;20432;-61
2023/06/05 03:28:30;;;;;;;11.48;8.30;;;;;;;13.44;72.16;102009.53;4990710;28;20029;-61
2023/06/05 03:30:55;;;;;;;9.70;8.70;;;;;;;13.66;71.26;102009.19;4983757;28;20019;-61
2023/06/05 03:33:20;;;;;;;9.95;8.35;;;;;;;13.49;71.96;102007.47;4986850;28;20378;-61
2023/06/05 03:35:46;;;;;;;9.32;8.30;;;;;;;13.22;72.57;101997.34;4977328;28;20110;-62
2023/06/05 03:38:13;;;;;;;11.50;9.05;;;;;;;13.28;72.88;102002.38;4976834;28;20082;-61
2023/06/05 03:40:39;;;;;;;10.65;8.50;;;;;;;13.24;73.16;101999.94;4987386;28;20058;-61
2023/06/05 03:43:07;;;;;;;9.07;8.18;;;;;;;13.42;72.51;102003.44;4975680;28;20037;-61
2023/06/05 03:45:35;;;;;;;11.57;9.07;;;;;;;13.26;72.93;101995.41;4969339;28;20367;-61
2023/06/05 03:48:00;;;;;;;13.40;8.60;;;;;;;13.30;72.73;101997.81;4984701;28;20026;-61
2023/06/05 03:50:30;;;;;;;10.30;8.50;;;;;;;13.25;72.89;101999.88;4983620;28;20501;-61
2023/06/05 03:53:02;;;;;;;12.07;9.85;;;;;;;13.14;73.42;102002.25;4987276;28;20027;-61
2023/06/05 03:55:44;;;;;;;12.00;9.23;;;;;;;13.10;73.64;102006.91;4987448;28;20275;-61
2023/06/05 03:58:15;;;;;;;10.52;9.43;;;;;;;13.06;74.15;102013.38;4980287;28;20026;-61
2023/06/05 04:00:44;;;;;;;10.15;9.15;;;;;;;13.15;73.76;102004.84;4977973;28;20041;-62
2023/06/05 04:03:10;;;;;;;13.90;9.85;;;;;;;13.05;73.92;102000.09;4970858;28;20110;-61
2023/06/05 04:05:38;;;;;;;13.45;9.45;;;;;;;13.21;73.76;102008.09;4953364;28;20030;-61
2023/06/05 04:08:03;;;;;;;10.18;9.15;;;;;;;13.12;73.86;102010.38;4970534;28;20478;-62
2023/06/05 04:10:29;;;;;;;10.55;9.45;;;;;;;12.96;74.07;101985.44;4969230;28;20049;-61
2023/06/05 04:12:55;;;;;;;11.57;9.73;;;;;;;12.99;74.53;102011.13;5065998;28;20476;-61
2023/06/05 04:15:20;;;;;;;14.07;9.32;;;;;;;13.19;73.91;102008.22;5071171;28;20020;-61
2023/06/05 04:17:45;;;;;;;10.48;9.48;;;;;;;12.96;74.52;102010.31;5071921;28;20028;-61
2023/06/05 04:20:14;;;;;;;10.82;9.73;;;;;;;13.00;74.58;102018.16;4979032;28;20018;-61
2023/06/05 04:22:43;;;;;;;12.57;9.98;;;;;;;13.09;74.16;102017.69;4969401;28;20432;-62
2023/06/05 04:25:12;;;;;;;15.50;9.82;;;;;;;13.24;73.92;102021.31;4970527;28;20023;-61
2023/06/05 04:27:41;;;;;;;10.88;9.73;;;;;;;13.12;74.09;102010.38;4972084;28;20034;-61
2023/06/05 04:30:08;;;;;;;10.45;9.45;;;;;;;13.27;73.74;102015.84;4950295;28;20034;-61
2023/06/05 04:32:36;;;;;;;10.52;9.50;;;;;;;13.00;74.37;102024.41;4969333;28;20117;-61
2023/06/05 04:35:02;;;;;;;11.55;10.27;;;;;;;13.23;74.02;102022.25;4978046;28;20528;-62
2023/06/05 04:37:30;;;;;;;12.77;9.80;;;;;;;13.15;74.10;102010.19;4973474;28;20057;-62
2023/06/05 04:39:56;;;;;;;14.63;10.80;;;;;;;13.10;74.25;102030.09;4984097;28;20058;-61
2023/06/05 04:42:21;;;;;;;12.20;10.90;;;;;;;13.27;73.83;102021.19;4986283;28;20046;-62
2023/06/05 04:45:02;;;;;;;13.77;11.02;;;;;;;13.14;74.36;102027.16;4984338;28;20079;-62
2023/06/05 04:47:29;;;;;;;12.05;10.95;;;;;;;13.12;74.20;102030.88;4986735;28;20056;-62
2023/06/05 04:49:58;;;;;;;13.02;11.77;;;;;;;12.97;74.81;102040.59;4980779;28;21335;-61
2023/06/05 04:52:23;;;;;;;16.13;11.50;;;;;;;13.04;74.46;102031.28;4987118;28;20042;-62
2023/06/05 04:54:49;;;;;;;12.70;11.40;;;;;;;13.20;74.50;102025.94;4982370;28;20022;-62
2023/06/05 04:57:16;;;;;;;13.05;11.75;;;;;;;13.06;74.57;102029.41;4983469;28;20023;-62
2023/06/05 04:59:45;;;;;;;12.43;11.15;;;;;;;13.17;74.41;102026.13;4988758;28;20030;-62
2023/06/05 05:02:12;;;;;;;12.93;11.63;;;;;;;13.29;73.82;102028.16;4983963;28;20034;-61
2023/06/05 05:04:37;;;;;;;13.25;12.02;;;;;;;13.15;74.89;102038.72;4967515;28;20484;-61
2023/06/05 05:07:03;;;;;;;21.80;11.35;;;;;;;13.16;74.05;102019.94;5070296;28;20092;-61
2023/06/05 05:09:30;;;;;;;14.75;12.23;;;;;;;13.10;74.87;102032.75;4969620;28;20103;-62
2023/06/05 05:11:55;;;;;;;17.55;11.40;;;;;;;13.14;74.53;102036.97;4977560;28;20117;-62
2023/06/05 05:14:21;;;;;;;13.25;11.25;;;;;;;13.28;74.46;102028.25;4984604;28;20534;-61
2023/06/05 05:16:50;;;;;;;14.27;11.75;;;;;;;13.37;74.25;102025.91;4967325;28;20026;-61
2023/06/05 05:19:15;;;;;;;13.88;12.50;;;;;;;13.36;74.27;102023.34;4987771;28;20092;-62
2023/06/05 05:21:43;;;;;;;14.23;12.55;;;;;;;13.38;74.11;102026.78;4985514;28;20465;-61
2023/06/05 05:24:09;;;;;;;15.90;12.27;;;;;;;13.42;73.74;102031.00;4959842;28;20076;-62
2023/06/05 05:26:39;;;;;;;15.75;13.02;;;;;;;13.49;73.42;102016.34;4984531;28;20026;-61
2023/06/05 05:29:05;;;;;;;19.35;13.50;;;;;;;13.51;73.26;102025.16;4960142;28;20415;-61
2023/06/05 05:31:30;;;;;;;14.98;13.45;;;;;;;13.50;73.26;102022.53;4969749;28;20105;-61
2023/06/05 05:33:56;;;;;;;13.73;12.43;;;;;;;13.58;73.09;102013.16;4969459;28;20409;-61
2023/06/05 05:36:21;;;;;;;13.40;12.20;;;;;;;13.59;73.17;102028.25;5001328;28;20376;-61
2023/06/05 05:38:46;;;;;;;17.52;13.57;;;;;;;13.68;73.04;102029.53;5069729;28;20117;-61
2023/06/05 05:41:12;;;;;;;16.70;12.77;;;;;;;13.59;72.71;102014.03;5054040;28;20050;-61
2023/06/05 05:43:37;;;;;;;14.40;12.98;;;;;;;13.63;72.89;102024.44;4965386;28;20031;-61
2023/06/05 05:46:03;;;;;;;14.95;13.43;;;;;;;13.75;72.19;102016.69;4968726;28;20394;-61
2023/06/05 05:48:28;;;;;;;17.52;13.27;;;;;;;13.88;71.83;102032.88;4970327;28;20105;-61
2023/06/05 05:50:53;;;;;;;16.10;13.70;;;;;;;13.84;72.18;102032.19;4970411;28;20076;-61
2023/06/05 05:53:19;;;;;;;14.93;13.43;;;;;;;13.90;71.79;102028.28;5078767;28;20542;-61
2023/06/05 05:55:45;;;;;;;15.77;14.18;;;;;;;13.93;71.82;102030.78;4982252;28;20054;-61
2023/06/05 05:58:10;;;;;;;15.70;14.10;;;;;;;13.93;71.40;102020.09;4972954;28;20119;-61
2023/06/05 06:00:38;;;;;;;14.98;13.55;;;;;;;13.98;71.71;102024.22;4971915;28;20031;-61
2023/06/05 06:03:03;;;;;;;14.93;13.50;;;;;;;14.03;70.59;102026.63;4972458;28;20027;-61
2023/06/05 06:05:30;;;;;;;15.52;13.98;;;;;;;14.06;70.99;102038.03;4972461;28;20041;-61
2023/06/05 06:07:55;;;;;;;15.93;14.25;;;;;;;14.09;70.71;102051.22;4971047;28;20019;-61
2023/06/05 06:10:21;;;;;;;16.35;13.57;;;;;;;14.18;70.65;102049.81;4980036;28;20493;-61
2023/06/05 06:12:46;;;;;;;16.88;13.82;;;;;;;14.33;70.38;102045.38;4991779;28;20081;-61
2023/06/05 06:15:12;;;;;;;15.50;13.88;;;;;;;14.27;69.80;102024.31;4991523;28;20034;-61
2023/06/05 06:17:38;;;;;;;16.75;13.88;;;;;;;14.51;69.08;102044.28;4990712;28;20034;-61
2023/06/05 06:20:05;;;;;;;19.55;13.52;;;;;;;14.48;69.71;102038.22;4981594;28;20034;-61
2023/06/05 06:22:31;;;;;;;15.50;14.02;;;;;;;14.63;68.69;102047.19;4986144;28;20034;-61
2023/06/05 06:24:57;;;;;;;18.98;13.70;;;;;;;14.73;68.50;102038.47;4974577;28;20027;-61
2023/06/05 06:27:24;;;;;;;15.40;13.77;;;;;;;14.69;68.85;102049.47;4972238;28;20482;-61
2023/06/05 06:29:54;;;;;;;20.67;14.48;;;;;;;14.57;68.95;102040.38;4978857;28;20101;-61
2023/06/05 06:32:19;;;;;;;;;;;;;;;14.92;68.13;102051.59;4982193;28;20042;-61
2023/06/05 06:34:45;;;;;;;15.82;14.15;;;;;;;14.81;68.34;102050.53;5022816;28;20368;-61
2023/06/05 06:37:19;;;;;;;15.20;13.70;;;;;;;14.91;67.98;102055.25;4991632;28;20026;-61
2023/06/05 06:39:45;;;;;;;15.30;13.68;;;;;;;14.89;67.16;102059.81;4986056;28;20034;-61
2023/06/05 06:42:11;;;;;;;15.95;14.38;;;;;;;14.97;67.25;102048.63;4990042;28;20085;-61
2023/06/05 06:44:37;;;;;;;15.13;13.55;;;;;;;15.04;67.44;102039.25;4989065;28;20045;-61
2023/06/05 06:47:02;;;;;;;19.25;14.68;;;;;;;15.08;67.00;102053.31;4971221;28;20116;-61
2023/06/05 06:49:28;;;;;;;15.65;13.60;;;;;;;15.19;66.41;102057.03;4971498;28;20023;-62
2023/06/05 06:51:53;;;;;;;15.30;13.60;;;;;;;15.41;66.03;102053.88;5003002;28;20042;-61
2023/06/05 06:54:19;;;;;;;16.45;13.52;;;;;;;15.48;65.94;102058.84;4987274;28;20030;-61
2023/06/05 06:56:46;;;;;;;16.40;14.35;;;;;;;15.38;65.79;102048.72;4989865;28;20033;-61
2023/06/05 06:59:13;;;;;;;15.43;13.10;;;;;;;15.45;65.88;102063.44;4991462;28;20032;-62
2023/06/05 07:02:15;;;;;;;18.17;13.85;;;;;;;15.65;65.39;102064.84;4969311;28;20055;-61
2023/06/05 07:04:42;;;;;;;15.65;14.05;;;;;;;15.71;64.81;102073.47;4981799;28;20057;-62
2023/06/05 07:07:13;;;;;;;17.67;13.82;;;;;;;15.82;66.08;102063.75;4958410;28;20477;-61
2023/06/05 07:09:40;;;;;;;15.43;13.77;;;;;;;15.86;64.29;102067.97;5006871;28;20024;-61
2023/06/05 07:12:07;;;;;;;15.32;13.73;;;;;;;16.05;63.75;102062.22;5070502;28;20046;-62
2023/06/05 07:14:35;;;;;;;18.23;14.02;;;;;;;16.06;63.54;102069.34;4976945;28;20035;-61
2023/06/05 07:17:02;;;;;;;15.55;13.90;;;;;;;16.14;64.42;102076.84;4958552;28;20038;-61
2023/06/05 07:19:32;;;;;;;15.15;13.55;;;;;;;16.25;62.98;102081.50;4984696;28;20046;-61
2023/06/05 07:21:58;;;;;;;17.58;13.63;;;;;;;16.37;62.86;102074.44;4975651;28;20034;-61
2023/06/05 07:24:28;;;;;;;14.32;12.82;;;;;;;16.50;62.29;102080.69;5020725;28;20031;-61
2023/06/05 07:26:55;;;;;;;16.55;13.88;;;;;;;16.48;61.99;102071.91;4970919;28;20109;-61
2023/06/05 07:29:24;;;;;;;14.70;13.18;;;;;;;16.64;62.67;102079.75;4973449;28;20064;-61
2023/06/05 07:31:51;;;;;;;18.80;14.80;;;;;;;16.75;61.65;102080.72;4982700;28;20235;-61
2023/06/05 07:34:22;;;;;;;15.60;13.70;;;;;;;16.83;61.64;102077.56;5006461;28;20109;-60
2023/06/05 07:36:51;;;;;;;15.80;14.20;;;;;;;16.95;60.54;102083.91;4979055;28;20027;-61
2023/06/05 07:39:16;;;;;;;16.10;13.73;;;;;;;17.02;60.07;102085.16;4976770;28;20027;-60
2023/06/05 07:41:42;;;;;;;20.98;14.27;;;;;;;16.96;60.34;102081.09;5005973;28;20452;-61
2023/06/05 07:44:14;;;;;;;16.70;13.27;;;;;;;17.15;60.30;102087.88;4971026;28;20025;-61
2023/06/05 07:46:40;;;;;;;19.55;13.57;;;;;;;17.22;60.90;102083.75;4990613;28;20034;-62
2023/06/05 07:49:06;;;;;;;18.77;13.13;;;;;;;17.42;59.72;102080.50;4989362;28;20048;-61
2023/06/05 07:51:35;;;;;;;18.92;12.77;;;;;;;17.48;60.42;102080.06;4989978;28;20027;-61
2023/06/05 07:54:11;;;;;;;19.20;13.55;;;;;;;17.67;59.01;102073.31;4989915;28;20423;-62
2023/06/05 07:56:38;;;;;;;14.20;12.77;;;;;;;17.74;57.82;102073.75;4983521;28;20481;-62
2023/06/05 07:59:05;;;;;;;15.27;12.23;;;;;;;17.88;57.42;102077.16;4989571;28;20023;-62
2023/06/05 08:01:31;;;;;;;13.05;11.70;;;;;;;17.90;57.61;102066.28;4988773;28;20050;-61
2023/06/05 08:03:57;;;;;;;15.73;11.80;;;;;;;17.90;58.43;102071.66;4988560;28;20041;-61
2023/06/05 08:06:26;;;;;;;13.75;12.32;;;;;;;17.87;57.67;102074.56;4989844;28;20035;-62
2023/06/05 08:08:51;;;;;;;16.00;11.48;;;;;;;18.11;57.65;102074.56;4989937;28;20041;-61
2023/06/05 08:11:17;;;;;;;14.68;11.32;;;;;;;18.21;57.46;102074.75;4983684;28;20042;-61
2023/06/05 08:13:42;;;;;;;14.40;11.60;;;;;;;18.31;56.54;102068.53;4971213;28;20476;-61
2023/06/05 08:16:10;;;;;;;16.38;12.40;;;;;;;18.39;55.66;102074.19;5053230;28;20023;-61
2023/06/05 08:18:36;;;;;;;13.18;11.75;;;;;;;18.32;57.00;102064.88;4970382;28;20501;-61
2023/06/05 08:21:02;;;;;;;15.45;11.50;;;;;;;18.39;55.96;102074.19;4970026;28;20180;-62
2023/06/05 08:23:27;;;;;;;17.05;10.73;;;;;;;18.48;56.11;102061.84;4968753;28;20068;-61
2023/06/05 08:25:53;;;;;;;14.65;11.10;;;;;;;18.53;55.62;102064.19;4975434;28;20042;-61
2023/06/05 08:28:19;;;;;;;16.60;12.45;;;;;;;18.67;55.39;102066.66;4977816;28;20534;-62
2023/06/05 08:30:45;;;;;;;15.20;11.52;;;;;;;18.76;55.53;102059.72;4974861;28;20109;-62
2023/06/05 08:33:13;;;;;;;12.15;10.60;;;;;;;18.86;55.52;102043.72;4989830;28;20028;-61
2023/06/05 08:35:41;;;;;;;16.25;10.85;;;;;;;18.99;53.86;102060.63;4988464;28;20036;-61
2023/06/05 08:38:06;;;;;;;14.13;11.57;;;;;;;19.08;54.01;102053.63;4990100;28;20033;-61
2023/06/05 08:40:33;;;;;;;12.27;10.95;;;;;;;19.08;53.57;102041.00;4988086;28;20046;-61
2023/06/05 08:43:03;;;;;;;13.10;10.77;;;;;;;19.28;53.48;102056.44;4989559;28;20023;-62
2023/06/05 08:45:31;;;;;;;;;;;;;;;19.57;53.17;102047.81;4989569;28;20033;-62
2023/06/05 08:48:00;;;;;;;14.33;10.00;;;;;;;19.33;53.30;102044.44;4989546;28;19975;-62
2023/06/05 08:50:28;;;;;;;10.95;9.35;;;;;;;19.43;52.57;102046.25;4989249;28;20354;-62
2023/06/05 08:52:58;;;;;;;14.07;10.13;;;;;;;19.52;51.58;102041.94;4988208;28;20027;-62
2023/06/05 08:55:24;;;;;;;13.18;11.38;;;;;;;19.48;53.23;102038.66;4989524;28;20027;-62
2023/06/05 08:57:51;;;;;;;13.18;10.35;;;;;;;19.47;52.06;102036.94;4989625;28;20034;-61
2023/06/05 09:00:17;;;;;;;14.10;10.18;;;;;;;19.86;51.97;102045.44;4987667;28;20032;-62
2023/06/05 09:02:48;;;;;;;12.90;10.30;;;;;;;20.02;50.91;102050.41;4989534;28;20034;-62
2023/06/05 09:05:17;;;;;;;15.65;10.05;;;;;;;20.10;51.11;102044.38;4988958;28;20023;-62
2023/06/05 09:07:43;;;;;;;18.88;9.77;;;;;;;20.25;50.96;102042.22;4989375;28;20097;-62
2023/06/05 09:10:22;;;;;;;11.63;9.13;;;;;;;20.24;52.18;102038.66;4988139;28;20122;-62
2023/06/05 09:13:02;;;;;;;12.48;9.40;;;;;;;20.31;50.71;102044.41;4989407;28;20035;-62
2023/06/05 09:15:29;;;;;;;11.48;9.30;;;;;;;20.49;50.52;102050.91;4988395;28;20428;-62
2023/06/05 09:18:12;;;;;;;11.43;8.48;;;;;;;20.72;51.04;102050.81;4987849;28;20106;-61
2023/06/05 09:20:40;;;;;;;13.75;8.45;;;;;;;20.81;48.84;102041.91;4988862;28;20034;-61
2023/06/05 09:23:29;;;;;;;10.30;8.55;;;;;;;20.89;49.55;102028.56;4990741;28;20103;-62
2023/06/05 09:25:56;;;;;;;;;;;;;;;21.22;48.72;102035.53;4953920;28;20035;-61
2023/06/05 09:28:22;;;;;;;11.15;8.82;;;;;;;21.02;48.08;102039.16;4953481;28;19933;-61
2023/06/05 09:31:02;;;;;;;11.93;9.07;;;;;;;21.23;48.16;102037.22;4953143;28;20471;-62
2023/06/05 09:33:35;;;;;;;13.18;8.88;;;;;;;21.19;47.23;102035.81;4953513;28;20027;-62
2023/06/05 09:36:09;;;;;;;14.13;9.20;;;;;;;21.22;47.91;102040.94;4953428;28;20020;-63
2023/06/05 09:38:36;;;;;;;12.52;9.73;;;;;;;21.07;47.50;102026.94;4952355;28;20031;-63
2023/06/05 09:41:14;;;;;;;13.07;8.75;;;;;;;21.16;48.31;102032.53;4951989;28;20502;-63
2023/06/05 09:43:40;;;;;;;12.88;8.63;;;;;;;21.29;47.19;102039.38;4953768;28;20061;-64
2023/06/05 09:46:10;;;;;;;15.27;8.60;;;;;;;21.26;47.16;102031.53;4984004;28;20046;-64
2023/06/05 09:48:36;;;;;;;15.30;8.52;;;;;;;21.28;46.70;102034.13;4953272;28;20089;-64
2023/06/05 09:51:22;;;;;;;15.98;9.25;;;;;;;21.35;48.08;102031.72;4951879;28;20205;-63
2023/06/05 09:53:52;;;;;;;12.30;7.82;;;;;;;21.31;48.83;102031.13;4953420;28;20031;-63
2023/06/05 09:56:19;;;;;;;8.52;7.50;;;;;;;21.42;47.60;102025.66;4952262;29;20111;-64
2023/06/05 09:58:48;;;;;;;12.85;8.63;;;;;;;21.43;47.49;102026.50;4952309;29;20042;-64
2023/06/05 10:01:24;;;;;;;14.35;7.95;;;;;;;21.53;47.97;102022.84;4951421;28;20031;-63
2023/06/05 10:04:00;;;;;;;14.40;8.15;;;;;;;21.50;47.82;102020.41;4951624;28;20487;-64
2023/06/05 10:06:31;;;;;;;11.48;6.75;;;;;;;21.59;47.11;102009.72;4952060;28;20110;-64
2023/06/05 10:08:57;;;;;;;10.93;7.70;;;;;;;21.63;47.05;102009.31;4953005;28;20031;-64
2023/06/05 10:11:25;;;;;;;13.68;7.53;;;;;;;21.83;46.86;102017.47;4953242;28;20019;-64
2023/06/05 10:13:51;;;;;;;11.25;7.03;;;;;;;21.92;47.15;102009.31;4952680;28;20024;-65
2023/06/05 10:16:18;;;;;;;10.80;7.13;;;;;;;22.02;46.70;102011.16;4967744;28;20027;-64
2023/06/05 10:18:48;;;;;;;16.65;6.72;;;;;;;22.02;47.35;102005.75;4952839;28;20130;-67
2023/06/05 10:21:17;;;;;;;12.32;6.97;;;;;;;22.30;45.92;102012.19;4952785;28;20039;-69
2023/06/05 10:24:05;;;;;;;11.98;7.00;;;;;;;22.45;46.46;102008.88;4955124;28;20027;-67
2023/06/05 10:27:15;;;;;;;13.18;7.05;;;;;;;22.44;45.99;102009.88;4970981;28;20026;-69
2023/06/05 10:30:14;;;;;;;9.40;7.13;;;;;;;22.53;44.86;102001.84;4970397;28;20031;-69
2023/06/05 10:33:29;;;;;;;12.00;6.65;;;;;;;22.75;45.53;102006.91;4971825;28;20038;-69
2023/06/05 10:36:26;;;;;;;13.95;7.30;;;;;;;22.70;45.19;101998.38;5031438;28;20472;-69
2023/06/05 10:38:52;;;;;;;11.10;6.47;;;;;;;22.68;45.91;101992.25;5031277;28;20022;-69
2023/06/05 10:41:18;;;;;;;13.13;6.50;;;;;;;22.93;44.70;102000.72;4980539;28;20047;-69
2023/06/05 10:43:47;;;;;;;11.63;7.07;;;;;;;22.71;43.67;101999.22;4971896;28;20027;-69
2023/06/05 10:46:35;;;;;;;8.82;5.70;;;;;;;22.97;45.58;101997.59;4971094;28;20042;-69
2023/06/05 10:49:19;;;;;;;7.97;6.83;;;;;;;23.01;44.76;102001.72;4971648;28;20042;-70
2023/06/05 10:51:53;;;;;;;11.85;6.88;;;;;;;22.96;45.00;101995.03;4970481;28;20022;-72
2023/06/05 10:54:21;;;;;;;14.57;7.18;;;;;;;23.04;44.48;101997.84;4971514;28;20026;-69
2023/06/05 10:57:01;;;;;;;12.10;7.05;;;;;;;23.12;43.86;101997.97;4970630;28;20481;-73
2023/06/05 10:59:31;;;;;;;9.25;6.35;;;;;;;22.99;42.75;101992.00;4971323;28;20054;-72
2023/06/05 11:02:09;;;;;;;12.63;6.20;;;;;;;23.30;43.82;101989.84;4971553;28;20397;-75
2023/06/05 11:04:46;;;;;;;9.73;5.15;;;;;;;23.50;42.61;101985.13;4970082;28;20039;-65
2023/06/05 11:07:25;;;;;;;8.95;5.80;;;;;;;23.36;43.45;101981.09;4971658;28;20023;-65
2023/06/05 11:10:02;;;;;;;11.18;5.25;;;;;;;23.42;42.73;101985.91;4970067;28;20035;-65
2023/06/05 11:12:40;;;;;;;10.10;5.70;;;;;;;23.42;42.54;101982.34;4971550;28;20031;-65
2023/06/05 11:15:07;;;;;;;10.80;6.75;;;;;;;23.48;41.72;101984.44;4970666;28;20042;-65
2023/06/05 11:17:38;;;;;;;10.82;6.45;;;;;;;23.57;41.33;101972.66;4970249;28;20122;-65
2023/06/05 11:20:12;;;;;;;11.57;6.35;;;;;;;23.63;41.18;101982.91;4971169;28;20055;-65
2023/06/05 11:22:53;;;;;;;9.80;6.07;;;;;;;23.62;41.36;101975.78;4970149;28;20022;-65
2023/06/05 11:25:20;;;;;;;9.57;6.55;;;;;;;23.31;41.99;101965.25;4969801;28;20078;-65